createdAt,value
2022-09-14T00:04:24.426Z,16.60
2022-09-14T00:09:33.208Z,8.80
2022-09-14T00:14:24.318Z,13.70
2022-09-14T00:19:24.336Z,7.80
2022-09-14T00:24:24.187Z,11.20
2022-09-14T00:29:24.171Z,8.60
2022-09-14T00:34:24.152Z,9.90
2022-09-14T00:39:24.141Z,11.20
2022-09-14T00:44:24.092Z,11.00
2022-09-14T00:49:23.997Z,7.60
2022-09-14T00:54:23.969Z,10.80
2022-09-14T00:59:23.827Z,9.30
2022-09-14T01:04:23.797Z,12.60
2022-09-14T01:09:23.755Z,10.80
2022-09-14T01:14:23.680Z,11.10
2022-09-14T01:19:23.606Z,9.60
2022-09-14T01:24:23.581Z,7.60
2022-09-14T01:29:23.520Z,9.90
2022-09-14T01:34:23.460Z,10.80
2022-09-14T01:39:23.446Z,13.00
2022-09-14T01:44:23.393Z,13.30
2022-09-14T01:49:23.319Z,13.00
2022-09-14T01:54:23.239Z,16.30
2022-09-14T01:59:23.296Z,10.20
2022-09-14T02:04:23.214Z,12.90
2022-09-14T02:09:23.148Z,9.30
2022-09-14T02:14:23.032Z,20.90
2022-09-14T02:19:23.981Z,11.70
2022-09-14T02:24:22.927Z,13.10
2022-09-14T02:29:22.846Z,11.00
2022-09-14T02:34:22.796Z,9.80
2022-09-14T02:39:22.859Z,11.60
2022-09-14T02:44:23.810Z,13.00
2022-09-14T02:49:22.716Z,15.50
2022-09-14T02:54:22.649Z,15.00
2022-09-14T02:59:22.585Z,18.00
2022-09-14T03:04:22.520Z,11.10
2022-09-14T03:09:22.468Z,18.30
2022-09-14T03:14:22.378Z,14.40
2022-09-14T03:19:22.309Z,13.20
2022-09-14T03:24:22.268Z,15.60
2022-09-14T03:29:22.209Z,17.70
2022-09-14T03:34:22.269Z,13.60
2022-09-14T03:39:22.101Z,16.30
2022-09-14T03:44:22.150Z,15.60
2022-09-14T03:49:22.090Z,23.50
2022-09-14T03:54:22.009Z,18.60
2022-09-14T03:59:21.959Z,23.70
2022-09-14T04:04:21.990Z,17.80
2022-09-14T04:09:21.907Z,18.20
2022-09-14T04:14:21.696Z,19.00
2022-09-14T04:19:21.669Z,21.70
2022-09-14T04:24:23.647Z,17.00
2022-09-14T04:29:21.550Z,24.60
2022-09-14T04:34:24.925Z,12.30
2022-09-14T04:39:21.449Z,13.10
2022-09-14T04:44:21.528Z,19.00
2022-09-14T04:49:21.443Z,13.10
2022-09-14T04:54:22.295Z,16.20
2022-09-14T04:59:21.350Z,16.40
2022-09-14T05:04:21.279Z,25.70
2022-09-14T05:09:21.126Z,20.50
2022-09-14T05:14:21.060Z,15.50
2022-09-14T05:19:20.986Z,14.90
2022-09-14T05:24:20.959Z,16.30
2022-09-14T05:29:20.885Z,16.80
2022-09-14T05:34:20.847Z,12.90
2022-09-14T05:39:23.343Z,15.70
2022-09-14T05:44:21.925Z,21.00
2022-09-14T05:49:20.715Z,16.70
2022-09-14T05:54:26.121Z,16.50
2022-09-14T05:59:20.571Z,23.60
2022-09-14T06:04:20.675Z,13.30
2022-09-14T06:09:33.059Z,23.50
2022-09-14T06:14:20.376Z,18.80
2022-09-14T06:19:20.332Z,15.60
2022-09-14T06:24:20.277Z,17.80
2022-09-14T06:29:20.242Z,19.60
2022-09-14T06:34:20.173Z,18.40
2022-09-14T06:39:20.134Z,20.30
2022-09-14T06:44:20.063Z,19.20
2022-09-14T06:49:20.024Z,15.20
2022-09-14T06:54:19.936Z,11.70
2022-09-14T06:59:19.915Z,14.20
2022-09-14T07:04:19.840Z,19.20
2022-09-14T07:09:19.827Z,17.40
2022-09-14T07:14:19.760Z,19.20
2022-09-14T07:19:19.698Z,13.10
2022-09-14T07:24:19.647Z,15.80
2022-09-14T07:29:19.620Z,17.10
2022-09-14T07:34:19.556Z,42.60
2022-09-14T07:39:19.482Z,7.40
2022-09-14T07:44:19.411Z,8.40
2022-09-14T07:49:20.365Z,19.30
2022-09-14T07:54:19.276Z,14.80
2022-09-14T07:59:36.515Z,12.30
2022-09-14T08:04:20.222Z,7.40
2022-09-14T08:09:19.129Z,14.80
2022-09-14T08:14:19.062Z,11.80
2022-09-14T08:19:19.059Z,12.00
2022-09-14T08:24:18.981Z,12.20
2022-09-14T08:29:18.939Z,12.30
2022-09-14T08:34:20.862Z,13.90
2022-09-14T08:39:18.832Z,12.70
2022-09-14T08:44:19.787Z,22.20
2022-09-14T08:49:18.739Z,14.70
2022-09-14T08:54:18.660Z,13.70
2022-09-14T08:59:18.627Z,18.30
2022-09-14T09:04:18.586Z,16.90
2022-09-14T09:09:18.497Z,14.20
2022-09-14T09:14:18.700Z,22.00
2022-09-14T09:19:18.368Z,14.40
2022-09-14T09:24:18.306Z,11.50
2022-09-14T09:29:18.255Z,9.20
2022-09-14T09:34:18.195Z,12.30
2022-09-14T09:39:18.213Z,14.40
2022-09-14T09:44:18.117Z,11.30
2022-09-14T09:49:18.039Z,16.30
2022-09-14T09:54:18.044Z,9.90
2022-09-14T09:59:17.936Z,11.60
2022-09-14T10:04:17.905Z,9.60
2022-09-14T10:09:17.824Z,9.40
2022-09-14T10:14:17.791Z,10.30
2022-09-14T10:19:17.892Z,12.80
2022-09-14T10:24:17.657Z,6.50
2022-09-14T10:29:17.636Z,6.10
2022-09-14T10:34:17.544Z,7.70
2022-09-14T10:39:17.483Z,13.80
2022-09-14T10:44:17.419Z,6.90
2022-09-14T10:49:17.412Z,8.70
2022-09-14T10:54:17.335Z,9.20
2022-09-14T10:59:17.289Z,21.20
2022-09-14T11:04:17.236Z,10.40
2022-09-14T11:09:17.178Z,6.30
2022-09-14T11:14:17.156Z,7.50
2022-09-14T11:19:17.098Z,6.80
2022-09-14T11:24:17.018Z,5.40
2022-09-14T11:29:16.956Z,8.00
2022-09-14T11:34:16.880Z,5.50
2022-09-14T11:39:16.863Z,6.60
2022-09-14T11:44:16.772Z,6.30
2022-09-14T11:49:16.744Z,5.10
2022-09-14T11:54:16.737Z,16.50
2022-09-14T11:59:16.613Z,5.70
2022-09-14T12:04:16.796Z,10.80
2022-09-14T12:09:16.584Z,9.80
2022-09-14T12:14:16.486Z,6.00
2022-09-14T12:19:16.414Z,6.10
2022-09-14T12:24:16.366Z,6.40
2022-09-14T12:29:16.430Z,7.20
2022-09-14T12:34:16.321Z,8.00
2022-09-14T12:39:16.209Z,9.00
2022-09-14T12:44:16.220Z,7.30
2022-09-14T12:49:16.117Z,5.80
2022-09-14T12:54:16.094Z,6.10
2022-09-14T12:59:15.972Z,6.10
2022-09-14T13:04:15.945Z,5.60
2022-09-14T13:09:15.892Z,4.30
2022-09-14T13:14:15.826Z,7.70
2022-09-14T13:19:15.783Z,12.80
2022-09-14T13:24:15.727Z,9.40
2022-09-14T13:29:15.668Z,8.80
2022-09-14T13:34:15.613Z,11.60
2022-09-14T13:39:15.696Z,9.70
2022-09-14T13:44:15.522Z,6.50
2022-09-14T13:49:15.477Z,9.10
2022-09-14T13:54:15.386Z,5.00
2022-09-14T13:59:15.333Z,7.00
2022-09-14T14:04:19.014Z,8.50
2022-09-14T14:09:15.278Z,8.10
2022-09-14T14:14:15.204Z,10.50
2022-09-14T14:19:15.159Z,7.00
2022-09-14T14:24:15.064Z,4.80
2022-09-14T14:29:15.022Z,7.90
2022-09-14T14:34:14.964Z,5.50
2022-09-14T14:39:15.020Z,8.50
2022-09-14T14:44:14.859Z,11.90
2022-09-14T14:49:14.850Z,8.30
2022-09-14T14:54:14.806Z,10.80
2022-09-14T14:59:14.709Z,9.60
2022-09-14T15:04:14.678Z,10.60
2022-09-14T15:09:14.635Z,7.30
2022-09-14T15:14:14.587Z,7.40
2022-09-14T15:19:14.553Z,6.30
2022-09-14T15:24:14.417Z,5.10
2022-09-14T15:29:14.335Z,8.60
2022-09-14T15:34:14.295Z,5.90
2022-09-14T15:39:14.325Z,6.00
2022-09-14T15:44:14.259Z,7.80
2022-09-14T15:49:14.141Z,6.30
2022-09-14T15:54:22.933Z,8.80
2022-09-14T15:59:14.081Z,6.10
2022-09-14T16:04:14.982Z,9.60
2022-09-14T16:09:13.954Z,6.90
2022-09-14T16:14:14.905Z,4.60
2022-09-14T16:19:13.828Z,7.10
2022-09-14T16:24:13.880Z,6.40
2022-09-14T16:29:13.738Z,5.90
2022-09-14T16:34:13.691Z,7.00
2022-09-14T16:39:13.747Z,8.70
2022-09-14T16:44:13.573Z,7.00
2022-09-14T16:49:15.675Z,8.80
2022-09-14T16:54:14.304Z,6.90
2022-09-14T16:59:15.615Z,13.90
2022-09-14T17:04:13.510Z,9.10
2022-09-14T17:09:14.692Z,12.30
2022-09-14T17:14:17.640Z,8.80
2022-09-14T17:19:14.348Z,10.10
2022-09-14T17:24:13.557Z,9.60
2022-09-14T17:29:13.109Z,15.20
2022-09-14T17:34:13.269Z,11.00
2022-09-14T17:39:13.070Z,14.50
2022-09-14T17:44:13.053Z,19.10
2022-09-14T17:49:13.238Z,17.00
2022-09-14T17:54:12.933Z,22.50
2022-09-14T17:59:18.357Z,19.10
2022-09-14T18:04:14.991Z,21.40
2022-09-14T18:09:12.719Z,22.30
2022-09-14T18:14:12.974Z,30.60
2022-09-14T18:19:13.332Z,30.20
2022-09-14T18:24:12.728Z,37.10
2022-09-14T18:29:16.025Z,41.40
2022-09-14T18:34:13.763Z,39.70
2022-09-14T18:39:13.810Z,44.10
2022-09-14T18:44:13.323Z,45.00
2022-09-14T18:49:12.295Z,47.70
2022-09-14T18:54:12.536Z,46.50
2022-09-14T18:59:12.119Z,43.80
2022-09-14T19:04:14.862Z,53.40
2022-09-14T19:09:12.753Z,63.90
2022-09-14T19:14:12.347Z,57.30
2022-09-14T19:19:13.163Z,64.90
2022-09-14T19:24:12.167Z,65.80
2022-09-14T19:29:11.920Z,73.10
2022-09-14T19:34:11.971Z,68.10
2022-09-14T19:39:11.749Z,68.30
2022-09-14T19:44:12.099Z,67.70
2022-09-14T19:49:13.937Z,85.40
2022-09-14T19:54:11.625Z,70.60
2022-09-14T19:59:11.703Z,74.40
2022-09-14T20:04:11.654Z,77.30
2022-09-14T20:09:11.526Z,93.70
2022-09-14T20:14:11.536Z,75.40
2022-09-14T20:19:11.384Z,85.70
2022-09-14T20:24:16.311Z,107.00
2022-09-14T20:29:12.246Z,82.60
2022-09-14T20:34:12.134Z,91.40
2022-09-14T20:39:11.158Z,117.10
2022-09-14T20:44:10.987Z,100.30
2022-09-14T20:49:11.036Z,114.00
2022-09-14T20:54:10.957Z,174.50
2022-09-14T20:59:10.899Z,156.20
2022-09-14T21:04:11.157Z,611.70
2022-09-14T21:09:10.761Z,661.90
2022-09-14T21:14:10.875Z,532.40
2022-09-14T21:19:11.684Z,878.40
2022-09-14T21:24:10.530Z,654.50
2022-09-14T21:29:10.534Z,278.40
2022-09-14T21:34:10.543Z,203.70
2022-09-14T21:39:10.374Z,185.50
2022-09-14T21:44:10.379Z,688.70
2022-09-14T21:49:10.259Z,527.10
2022-09-14T21:54:10.237Z,557.30
2022-09-14T21:59:10.277Z,411.70
2022-09-14T22:04:10.148Z,678.10
2022-09-14T22:09:10.123Z,747.10
2022-09-14T22:14:11.065Z,243.90
2022-09-14T22:19:09.929Z,354.80
2022-09-14T22:24:09.883Z,285.60
2022-09-14T22:29:09.799Z,235.90
2022-09-14T22:34:09.788Z,556.90
2022-09-14T22:39:10.790Z,313.60
2022-09-14T22:44:09.674Z,130.40
2022-09-14T22:49:09.599Z,117.70
2022-09-14T22:54:09.577Z,103.50
2022-09-14T22:59:09.484Z,80.00
2022-09-14T23:04:09.534Z,104.40
2022-09-14T23:09:09.450Z,148.80
2022-09-14T23:14:09.444Z,235.30
2022-09-14T23:19:09.337Z,161.10
2022-09-14T23:24:10.098Z,116.10
2022-09-14T23:29:09.151Z,176.00
2022-09-14T23:34:09.231Z,155.10
2022-09-14T23:39:09.147Z,154.40
2022-09-14T23:44:09.050Z,148.20
2022-09-14T23:49:09.002Z,112.60
2022-09-14T23:54:08.938Z,151.10
2022-09-14T23:59:08.865Z,172.80
